createdAt,value
2019-05-26T00:00:54.194Z,12.25
2019-05-26T00:01:54.134Z,12.18
2019-05-26T00:02:54.868Z,12.21
2019-05-26T00:03:54.199Z,12.15
2019-05-26T00:04:54.031Z,12.15
2019-05-26T00:05:54.034Z,12.18
2019-05-26T00:06:54.095Z,12.15
2019-05-26T00:07:54.097Z,12.18
2019-05-26T00:08:54.009Z,12.14
2019-05-26T00:09:53.989Z,12.14
2019-05-26T00:10:53.986Z,12.18
2019-05-26T00:11:54.001Z,12.20
2019-05-26T00:12:53.958Z,12.17
2019-05-26T00:13:53.995Z,12.18
2019-05-26T00:14:53.997Z,12.15
2019-05-26T00:15:53.960Z,12.18
2019-05-26T00:16:53.955Z,12.26
2019-05-26T00:17:53.950Z,12.20
2019-05-26T00:18:54.016Z,12.30
2019-05-26T00:19:54.853Z,12.25
2019-05-26T00:20:53.931Z,12.33
2019-05-26T00:21:53.946Z,12.32
2019-05-26T00:22:53.897Z,12.33
2019-05-26T00:23:56.208Z,12.33
2019-05-26T00:24:53.868Z,12.35
2019-05-26T00:25:53.918Z,12.32
2019-05-26T00:26:53.840Z,12.35
2019-05-26T00:27:53.842Z,12.43
2019-05-26T00:28:53.879Z,12.40
2019-05-26T00:29:54.411Z,12.36
2019-05-26T00:30:53.895Z,12.37
2019-05-26T00:31:53.807Z,12.36
2019-05-26T00:32:53.817Z,12.28
2019-05-26T00:33:53.882Z,12.29
2019-05-26T00:34:53.864Z,12.18
2019-05-26T00:35:53.833Z,12.23
2019-05-26T00:36:54.020Z,12.12
2019-05-26T00:37:54.440Z,12.10
2019-05-26T00:38:53.828Z,12.12
2019-05-26T00:39:53.766Z,12.08
2019-05-26T00:40:54.362Z,11.97
2019-05-26T00:41:53.772Z,12.03
2019-05-26T00:42:53.764Z,11.96
2019-05-26T00:43:54.357Z,12.00
2019-05-26T00:44:54.357Z,11.99
2019-05-26T00:45:53.650Z,11.99
2019-05-26T00:46:53.750Z,11.96
2019-05-26T00:47:54.361Z,11.93
2019-05-26T00:48:54.361Z,11.93
2019-05-26T00:49:53.801Z,11.77
2019-05-26T00:50:54.358Z,11.73
2019-05-26T00:51:53.612Z,11.73
2019-05-26T00:52:56.554Z,11.77
2019-05-26T00:53:53.525Z,11.73
2019-05-26T00:54:53.501Z,11.70
2019-05-26T00:55:54.368Z,11.68
2019-05-26T00:56:53.588Z,11.65
2019-05-26T00:57:53.474Z,11.71
2019-05-26T00:58:54.362Z,11.68
2019-05-26T00:59:53.489Z,11.60
2019-05-26T01:00:53.440Z,11.59
2019-05-26T01:02:02.467Z,11.56
2019-05-26T01:02:53.400Z,11.45
2019-05-26T01:03:53.406Z,11.59
2019-05-26T01:04:53.388Z,11.52
2019-05-26T01:05:53.367Z,11.53
2019-05-26T01:06:53.370Z,11.52
2019-05-26T01:08:05.752Z,11.45
2019-05-26T01:08:54.387Z,11.48
2019-05-26T01:10:02.516Z,11.40
2019-05-26T01:10:53.385Z,11.52
2019-05-26T01:11:53.331Z,11.43
2019-05-26T01:12:53.298Z,11.41
2019-05-26T01:13:53.400Z,11.38
2019-05-26T01:14:53.301Z,11.41
2019-05-26T01:15:53.276Z,11.30
2019-05-26T01:16:55.720Z,11.40
2019-05-26T01:17:53.281Z,11.27
2019-05-26T01:18:53.290Z,11.30
2019-05-26T01:19:53.273Z,11.30
2019-05-26T01:20:53.227Z,11.22
2019-05-26T01:21:53.235Z,11.25
2019-05-26T01:22:53.955Z,11.26
2019-05-26T01:23:53.179Z,11.22
2019-05-26T01:24:54.419Z,11.22
2019-05-26T01:25:53.195Z,11.25
2019-05-26T01:26:53.202Z,11.22
2019-05-26T01:27:53.142Z,11.13
2019-05-26T01:28:53.175Z,11.20
2019-05-26T01:29:53.134Z,11.15
2019-05-26T01:30:53.216Z,11.15
2019-05-26T01:31:53.107Z,11.10
2019-05-26T01:32:53.113Z,11.05
2019-05-26T01:34:02.585Z,11.12
2019-05-26T01:35:02.633Z,11.12
2019-05-26T01:38:24.202Z,11.05
2019-05-26T01:40:38.751Z,11.00
2019-05-26T01:41:38.693Z,10.95
2019-05-26T01:42:38.671Z,10.94
2019-05-26T01:43:38.645Z,10.87
2019-05-26T01:44:38.680Z,10.92
2019-05-26T01:45:38.655Z,10.86
2019-05-26T01:46:38.634Z,10.92
2019-05-26T01:47:38.642Z,10.80
2019-05-26T01:48:38.601Z,10.79
2019-05-26T01:49:38.582Z,10.80
2019-05-26T01:50:48.086Z,10.86
2019-05-26T01:51:39.443Z,10.79
2019-05-26T01:52:38.556Z,10.77
2019-05-26T01:53:38.516Z,10.77
2019-05-26T01:54:40.967Z,10.75
2019-05-26T01:55:38.528Z,10.80
2019-05-26T01:56:38.490Z,10.76
2019-05-26T01:57:38.479Z,10.69
2019-05-26T01:58:38.467Z,10.75
2019-05-26T01:59:38.442Z,10.86
2019-05-26T02:00:38.444Z,10.71
2019-05-26T02:01:38.465Z,10.69
2019-05-26T02:02:38.458Z,10.69
2019-05-26T02:03:38.427Z,10.75
2019-05-26T02:04:38.397Z,10.69
2019-05-26T02:05:38.412Z,10.65
2019-05-26T02:06:38.405Z,10.75
2019-05-26T02:07:38.945Z,10.68
2019-05-26T02:08:39.814Z,10.72
2019-05-26T02:09:38.362Z,10.65
2019-05-26T02:10:38.455Z,10.67
2019-05-26T02:11:38.369Z,10.65
2019-05-26T02:12:38.342Z,10.62
2019-05-26T02:13:38.369Z,10.61
2019-05-26T02:14:38.305Z,10.76
2019-05-26T02:15:38.433Z,10.68
2019-05-26T02:16:38.338Z,10.68
2019-05-26T02:17:38.363Z,10.62
2019-05-26T02:18:38.248Z,10.61
2019-05-26T02:19:38.325Z,10.65
2019-05-26T02:20:38.315Z,10.62
2019-05-26T02:21:38.206Z,10.61
2019-05-26T02:22:38.303Z,10.67
2019-05-26T02:23:38.309Z,10.65
2019-05-26T02:24:38.175Z,10.57
2019-05-26T02:25:38.202Z,10.53
2019-05-26T02:26:38.197Z,10.48
2019-05-26T02:27:38.213Z,10.51
2019-05-26T02:28:38.189Z,10.46
2019-05-26T02:29:38.128Z,10.45
2019-05-26T02:30:38.199Z,10.49
2019-05-26T02:31:38.193Z,10.49
2019-05-26T02:32:38.120Z,10.45
2019-05-26T02:33:38.172Z,10.36
2019-05-26T02:34:38.090Z,10.49
2019-05-26T02:35:38.098Z,10.53
2019-05-26T02:36:38.091Z,10.57
2019-05-26T02:37:38.068Z,10.51
2019-05-26T02:38:38.099Z,10.49
2019-05-26T02:39:38.045Z,10.51
2019-05-26T02:40:38.145Z,10.53
2019-05-26T02:41:38.033Z,10.55
2019-05-26T02:42:38.014Z,10.53
2019-05-26T02:43:38.027Z,10.49
2019-05-26T02:44:37.978Z,10.48
2019-05-26T02:45:38.017Z,10.48
2019-05-26T02:46:38.032Z,10.55
2019-05-26T02:47:37.957Z,10.53
2019-05-26T02:48:37.982Z,10.51
2019-05-26T02:49:37.942Z,10.57
2019-05-26T02:50:37.917Z,10.48
2019-05-26T02:51:37.977Z,10.51
2019-05-26T02:52:37.924Z,10.53
2019-05-26T02:53:37.934Z,10.55
2019-05-26T02:54:37.883Z,10.55
2019-05-26T02:55:37.929Z,10.53
2019-05-26T02:56:37.901Z,10.49
2019-05-26T02:57:37.858Z,10.51
2019-05-26T02:58:37.846Z,10.46
2019-05-26T02:59:37.875Z,10.51
2019-05-26T03:00:39.220Z,10.53
2019-05-26T03:01:38.071Z,10.58
2019-05-26T03:02:37.928Z,10.53
2019-05-26T03:03:37.871Z,10.51
2019-05-26T03:04:37.787Z,10.49
2019-05-26T03:05:37.779Z,10.55
2019-05-26T03:06:37.785Z,10.48
2019-05-26T03:07:37.836Z,10.51
2019-05-26T03:08:37.731Z,10.55
2019-05-26T03:09:37.764Z,10.49
2019-05-26T03:10:37.707Z,10.49
2019-05-26T03:11:37.725Z,10.57
2019-05-26T03:12:37.677Z,10.41
2019-05-26T03:13:37.722Z,10.51
2019-05-26T03:14:37.654Z,10.57
2019-05-26T03:15:37.689Z,10.49
2019-05-26T03:16:37.709Z,10.51
2019-05-26T03:17:37.640Z,10.49
2019-05-26T03:18:37.679Z,10.51
2019-05-26T03:19:37.635Z,10.53
2019-05-26T03:20:37.602Z,10.49
2019-05-26T03:21:37.595Z,10.49
2019-05-26T03:22:37.593Z,10.48
2019-05-26T03:23:38.460Z,10.49
2019-05-26T03:24:37.555Z,10.49
2019-05-26T03:25:37.570Z,10.39
2019-05-26T03:26:37.587Z,10.51
2019-05-26T03:27:37.628Z,10.51
2019-05-26T03:28:37.535Z,10.53
2019-05-26T03:29:37.546Z,10.49
2019-05-26T03:30:37.507Z,10.53
2019-05-26T03:31:37.531Z,10.53
2019-05-26T03:32:37.455Z,10.53
2019-05-26T03:33:37.572Z,10.51
2019-05-26T03:34:37.500Z,10.61
2019-05-26T03:35:37.452Z,10.61
2019-05-26T03:36:37.590Z,10.53
2019-05-26T03:37:37.453Z,10.59
2019-05-26T03:38:37.457Z,10.64
2019-05-26T03:39:45.338Z,10.61
2019-05-26T03:40:38.484Z,10.65
2019-05-26T03:41:37.445Z,10.62
2019-05-26T03:42:37.377Z,10.68
2019-05-26T03:43:38.024Z,10.59
2019-05-26T03:44:37.369Z,10.79
2019-05-26T03:45:37.334Z,10.76
2019-05-26T03:46:37.329Z,10.75
2019-05-26T03:47:37.498Z,10.77
2019-05-26T03:48:37.320Z,10.82
2019-05-26T03:49:37.331Z,10.75
2019-05-26T03:50:37.292Z,10.84
2019-05-26T03:51:37.284Z,10.84
2019-05-26T03:52:37.287Z,10.82
2019-05-26T03:53:37.279Z,10.87
2019-05-26T03:54:37.974Z,10.92
2019-05-26T03:55:37.334Z,10.89
2019-05-26T03:56:37.209Z,10.95
2019-05-26T03:57:37.222Z,10.87
2019-05-26T03:58:37.213Z,10.87
2019-05-26T03:59:37.186Z,10.95
2019-05-26T04:00:37.251Z,10.98
2019-05-26T04:01:37.157Z,10.92
2019-05-26T04:02:37.125Z,11.00
2019-05-26T04:03:37.123Z,11.05
2019-05-26T04:04:37.180Z,11.08
2019-05-26T04:05:37.134Z,11.10
2019-05-26T04:06:37.093Z,11.10
2019-05-26T04:07:37.106Z,11.07
2019-05-26T04:08:37.109Z,11.02
2019-05-26T04:09:37.082Z,11.10
2019-05-26T04:10:37.088Z,11.18
2019-05-26T04:11:37.075Z,11.15
2019-05-26T04:12:37.133Z,11.15
2019-05-26T04:13:37.022Z,11.23
2019-05-26T04:14:37.029Z,11.19
2019-05-26T04:15:37.019Z,11.25
2019-05-26T04:16:37.000Z,11.26
2019-05-26T04:17:37.036Z,11.27
2019-05-26T04:18:36.955Z,11.26
2019-05-26T04:19:36.945Z,11.26
2019-05-26T04:20:36.947Z,11.30
2019-05-26T04:21:36.933Z,11.35
2019-05-26T04:22:36.951Z,11.37
2019-05-26T04:23:37.105Z,11.40
2019-05-26T04:24:36.897Z,11.43
2019-05-26T04:25:36.930Z,11.44
2019-05-26T04:26:36.916Z,11.45
2019-05-26T04:27:36.885Z,11.44
2019-05-26T04:28:36.888Z,11.45
2019-05-26T04:29:36.855Z,11.56
2019-05-26T04:30:36.842Z,11.53
2019-05-26T04:31:36.814Z,11.53
2019-05-26T04:32:36.862Z,11.51
2019-05-26T04:33:36.833Z,11.52
2019-05-26T04:34:36.797Z,11.53
2019-05-26T04:35:36.793Z,11.49
2019-05-26T04:36:36.754Z,11.56
2019-05-26T04:37:36.777Z,11.60
2019-05-26T04:38:36.765Z,11.53
2019-05-26T04:39:36.779Z,11.59
2019-05-26T04:40:36.762Z,11.55
2019-05-26T04:41:36.803Z,11.60
2019-05-26T04:42:36.742Z,11.60
2019-05-26T04:43:36.726Z,11.58
2019-05-26T04:44:36.708Z,11.52
2019-05-26T04:45:36.676Z,11.68
2019-05-26T04:46:36.841Z,11.67
2019-05-26T04:47:36.720Z,11.59
2019-05-26T04:48:36.674Z,11.56
2019-05-26T04:49:37.832Z,11.71
2019-05-26T04:50:36.850Z,11.70
2019-05-26T04:51:37.478Z,11.71
2019-05-26T04:52:36.684Z,11.70
2019-05-26T04:53:36.725Z,11.81
2019-05-26T04:54:36.673Z,11.77
2019-05-26T04:55:36.597Z,11.88
2019-05-26T04:56:36.695Z,11.88
2019-05-26T04:57:36.575Z,11.89
2019-05-26T04:58:36.541Z,11.91
2019-05-26T04:59:36.516Z,12.11
2019-05-26T05:00:46.239Z,12.08
2019-05-26T05:01:38.367Z,11.97
2019-05-26T05:02:52.089Z,12.03
2019-05-26T05:03:36.557Z,11.97
2019-05-26T05:04:36.469Z,12.05
2019-05-26T05:05:38.876Z,11.97
2019-05-26T05:06:42.384Z,12.03
2019-05-26T05:07:39.105Z,12.08
2019-05-26T05:08:36.440Z,12.15
2019-05-26T05:09:38.588Z,12.15
2019-05-26T05:10:42.756Z,12.15
2019-05-26T05:11:36.434Z,12.35
2019-05-26T05:12:36.391Z,12.32
2019-05-26T05:13:36.432Z,12.35
2019-05-26T05:14:36.383Z,12.44
2019-05-26T05:15:36.451Z,12.48
2019-05-26T05:16:37.097Z,12.47
2019-05-26T05:17:36.348Z,12.58
2019-05-26T05:18:49.030Z,12.72
2019-05-26T05:19:38.483Z,12.80
2019-05-26T05:20:36.376Z,12.72
2019-05-26T05:21:43.073Z,12.94
2019-05-26T05:22:39.673Z,13.01
2019-05-26T05:23:36.321Z,13.02
2019-05-26T05:24:40.156Z,13.17
2019-05-26T05:25:36.400Z,13.11
2019-05-26T05:26:36.411Z,13.26
2019-05-26T05:27:36.296Z,13.30
2019-05-26T05:28:36.205Z,13.47
2019-05-26T05:29:36.198Z,13.47
2019-05-26T05:30:36.206Z,13.61
2019-05-26T05:31:36.169Z,13.65
2019-05-26T05:32:36.180Z,13.76
2019-05-26T05:33:36.158Z,13.76
2019-05-26T05:34:36.168Z,13.80
2019-05-26T05:35:36.204Z,13.80
2019-05-26T05:36:36.989Z,13.80
2019-05-26T05:37:36.138Z,13.83
2019-05-26T05:38:37.137Z,13.79
2019-05-26T05:39:37.016Z,13.86
2019-05-26T05:40:36.167Z,13.83
2019-05-26T05:41:36.319Z,13.93
2019-05-26T05:42:36.074Z,13.98
2019-05-26T05:43:37.989Z,14.04
2019-05-26T05:44:36.073Z,14.05
2019-05-26T05:45:36.990Z,14.18
2019-05-26T05:46:39.497Z,14.07
2019-05-26T05:47:36.112Z,14.20
2019-05-26T05:48:40.077Z,14.22
2019-05-26T05:49:36.350Z,14.19
2019-05-26T05:50:39.122Z,14.23
2019-05-26T05:51:37.998Z,14.33
2019-05-26T05:52:37.534Z,14.43
2019-05-26T05:53:35.956Z,14.45
2019-05-26T05:54:35.922Z,14.43
2019-05-26T05:55:35.917Z,14.52
2019-05-26T05:56:35.931Z,14.63
2019-05-26T05:57:35.997Z,14.73
2019-05-26T05:58:36.995Z,14.79
2019-05-26T05:59:35.980Z,14.74
2019-05-26T06:00:35.870Z,14.70
2019-05-26T06:01:35.931Z,14.67
2019-05-26T06:02:35.912Z,14.68
2019-05-26T06:03:35.903Z,14.71
2019-05-26T06:04:35.835Z,14.68
2019-05-26T06:05:35.849Z,14.68
2019-05-26T06:06:35.820Z,14.77
2019-05-26T06:07:35.829Z,14.86
2019-05-26T06:08:35.839Z,14.93
2019-05-26T06:09:36.631Z,15.11
2019-05-26T06:10:35.902Z,15.11
2019-05-26T06:11:35.765Z,15.14
2019-05-26T06:12:35.856Z,15.17
2019-05-26T06:14:53.129Z,15.10
2019-05-26T06:15:53.884Z,15.12
2019-05-26T06:16:53.131Z,15.11
2019-05-26T06:17:53.099Z,15.18
2019-05-26T06:18:53.110Z,15.14
2019-05-26T06:19:53.112Z,15.14
2019-05-26T06:20:53.056Z,15.14
2019-05-26T06:21:53.037Z,15.22
2019-05-26T06:22:53.080Z,15.30
2019-05-26T06:23:53.105Z,15.44
2019-05-26T06:24:53.887Z,15.45
2019-05-26T06:25:53.078Z,15.43
2019-05-26T06:26:53.006Z,15.41
2019-05-26T06:27:53.005Z,15.27
2019-05-26T06:28:53.012Z,15.36
2019-05-26T06:29:58.710Z,15.45
2019-05-26T06:30:53.990Z,15.48
2019-05-26T06:31:53.281Z,15.50
2019-05-26T06:32:52.931Z,15.52
2019-05-26T06:33:52.929Z,15.63
2019-05-26T06:34:52.921Z,15.75
2019-05-26T06:35:52.917Z,15.85
2019-05-26T06:36:52.923Z,15.90
2019-05-26T06:37:52.868Z,15.90
2019-05-26T06:38:52.878Z,16.03
2019-05-26T06:39:52.904Z,16.05
2019-05-26T06:40:52.869Z,16.12
2019-05-26T06:41:52.882Z,16.03
2019-05-26T06:42:52.882Z,16.10
2019-05-26T06:43:52.807Z,16.02
2019-05-26T06:44:54.453Z,16.03
2019-05-26T06:45:52.915Z,16.02
2019-05-26T06:46:53.500Z,16.05
2019-05-26T06:47:52.792Z,16.13
2019-05-26T06:48:53.114Z,16.43
2019-05-26T06:49:52.827Z,16.61
2019-05-26T06:50:52.802Z,16.80
2019-05-26T06:51:52.734Z,16.92
2019-05-26T06:52:53.894Z,16.92
2019-05-26T06:53:52.723Z,16.95
2019-05-26T06:54:52.682Z,17.12
2019-05-26T06:55:52.706Z,17.13
2019-05-26T06:56:53.092Z,17.13
2019-05-26T06:57:52.882Z,17.24
2019-05-26T06:58:52.730Z,17.14
2019-05-26T06:59:52.699Z,17.20
2019-05-26T07:00:52.724Z,17.09
2019-05-26T07:01:52.721Z,17.17
2019-05-26T07:02:52.657Z,17.27
2019-05-26T07:03:53.033Z,17.23
2019-05-26T07:04:52.816Z,17.32
2019-05-26T07:05:52.602Z,17.32
2019-05-26T07:06:52.700Z,17.35
2019-05-26T07:07:53.522Z,17.53
2019-05-26T07:08:53.990Z,17.60
2019-05-26T07:09:57.401Z,17.73
2019-05-26T07:10:52.916Z,17.78
2019-05-26T07:11:59.126Z,17.75
2019-05-26T07:12:53.519Z,17.60
2019-05-26T07:13:52.519Z,17.71
2019-05-26T07:14:52.495Z,17.78
2019-05-26T07:15:52.505Z,17.75
2019-05-26T07:16:52.507Z,17.80
2019-05-26T07:17:52.566Z,17.87
2019-05-26T07:18:52.439Z,17.86
2019-05-26T07:19:52.437Z,17.95
2019-05-26T07:20:52.479Z,17.98
2019-05-26T07:21:52.445Z,18.03
2019-05-26T07:22:52.478Z,17.97
2019-05-26T07:23:52.390Z,18.06
2019-05-26T07:24:52.375Z,18.00
2019-05-26T07:25:52.378Z,18.12
2019-05-26T07:26:52.613Z,18.08
2019-05-26T07:27:52.404Z,18.19
2019-05-26T07:28:52.329Z,18.30
2019-05-26T07:29:52.380Z,18.27
2019-05-26T07:30:52.357Z,18.42
2019-05-26T07:31:52.528Z,18.45
2019-05-26T07:32:52.310Z,18.49
2019-05-26T07:33:52.326Z,18.51
2019-05-26T07:34:52.272Z,18.55
2019-05-26T07:35:52.275Z,18.66
2019-05-26T07:36:52.276Z,18.71
2019-05-26T07:37:52.282Z,18.78
2019-05-26T07:38:52.244Z,18.76
2019-05-26T07:39:52.288Z,18.76
2019-05-26T07:40:52.330Z,18.74
2019-05-26T07:42:08.683Z,18.70
2019-05-26T07:42:53.204Z,18.81
2019-05-26T07:43:52.173Z,18.70
2019-05-26T07:44:52.186Z,18.57
2019-05-26T07:45:52.258Z,18.45
2019-05-26T07:46:52.148Z,18.42
2019-05-26T07:47:52.115Z,18.41
2019-05-26T07:48:52.148Z,18.49
2019-05-26T07:49:52.135Z,18.52
2019-05-26T07:50:52.123Z,18.64
2019-05-26T07:51:52.912Z,18.70
2019-05-26T07:52:52.914Z,18.82
2019-05-26T07:53:55.837Z,18.82
2019-05-26T07:54:52.067Z,18.96
2019-05-26T07:55:52.105Z,18.97
2019-05-26T07:56:52.045Z,19.09
2019-05-26T07:57:52.052Z,19.16
2019-05-26T07:58:52.105Z,19.04
2019-05-26T07:59:52.027Z,18.89
2019-05-26T08:00:52.017Z,18.82
2019-05-26T08:01:52.021Z,18.79
2019-05-26T08:02:51.992Z,18.88
2019-05-26T08:03:51.962Z,18.86
2019-05-26T08:04:51.993Z,18.82
2019-05-26T08:05:52.012Z,18.89
2019-05-26T08:06:51.961Z,18.81
2019-05-26T08:07:51.986Z,18.86
2019-05-26T08:08:51.989Z,18.83
2019-05-26T08:09:51.946Z,18.88
2019-05-26T08:10:55.032Z,18.85
2019-05-26T08:12:01.011Z,18.83
2019-05-26T08:12:51.875Z,18.96
2019-05-26T08:13:51.878Z,19.17
2019-05-26T08:14:51.861Z,19.11
2019-05-26T08:15:51.869Z,19.05
2019-05-26T08:16:51.828Z,18.89
2019-05-26T08:17:51.829Z,19.00
2019-05-26T08:18:52.449Z,18.91
2019-05-26T08:19:51.843Z,18.94
2019-05-26T08:20:51.853Z,18.94
2019-05-26T08:21:54.520Z,18.94
2019-05-26T08:22:51.763Z,19.00
2019-05-26T08:23:51.975Z,18.97
2019-05-26T08:24:51.830Z,18.86
2019-05-26T08:25:51.748Z,18.82
2019-05-26T08:26:51.809Z,19.00
2019-05-26T08:27:51.810Z,19.09
2019-05-26T08:28:51.727Z,19.07
2019-05-26T08:29:51.708Z,19.20
2019-05-26T08:30:51.748Z,19.27
2019-05-26T08:31:52.450Z,19.24
2019-05-26T08:32:51.793Z,19.37
2019-05-26T08:33:51.787Z,19.30
2019-05-26T08:34:51.688Z,19.30
2019-05-26T08:35:51.710Z,19.41
2019-05-26T08:36:51.657Z,19.37
2019-05-26T08:37:51.667Z,19.29
2019-05-26T08:38:51.634Z,19.29
2019-05-26T08:39:51.588Z,19.20
2019-05-26T08:40:51.576Z,19.30
2019-05-26T08:41:51.586Z,19.49
2019-05-26T08:42:51.621Z,19.53
2019-05-26T08:43:51.551Z,19.62
2019-05-26T08:44:51.815Z,19.81
2019-05-26T08:45:51.563Z,19.75
2019-05-26T08:46:51.511Z,19.84
2019-05-26T08:47:51.525Z,19.90
2019-05-26T08:48:51.524Z,19.99
2019-05-26T08:49:51.699Z,19.96
2019-05-26T08:50:51.598Z,19.96
2019-05-26T08:51:51.501Z,19.78
2019-05-26T08:52:51.435Z,19.74
2019-05-26T08:53:51.506Z,19.71
2019-05-26T08:54:51.570Z,19.57
2019-05-26T08:55:51.456Z,19.77
2019-05-26T08:56:51.517Z,19.90
2019-05-26T08:57:51.471Z,20.02
2019-05-26T08:58:51.455Z,20.11
2019-05-26T08:59:51.464Z,20.18
2019-05-26T09:00:51.401Z,20.07
2019-05-26T09:01:51.386Z,19.97
2019-05-26T09:02:52.058Z,20.11
2019-05-26T09:03:51.366Z,20.17
2019-05-26T09:04:51.961Z,20.12
2019-05-26T09:05:51.308Z,20.39
2019-05-26T09:06:52.021Z,20.48
2019-05-26T09:07:51.347Z,20.50
2019-05-26T09:08:51.271Z,20.59
2019-05-26T09:09:51.268Z,20.75
2019-05-26T09:10:51.297Z,20.93
2019-05-26T09:11:51.406Z,20.96
2019-05-26T09:13:00.993Z,21.04
2019-05-26T09:13:52.216Z,21.08
2019-05-26T09:14:51.226Z,21.01
2019-05-26T09:15:51.223Z,20.96
2019-05-26T09:16:51.237Z,20.95
2019-05-26T09:17:51.196Z,20.98
2019-05-26T09:18:51.208Z,21.07
2019-05-26T09:19:51.177Z,21.22
2019-05-26T09:20:51.338Z,21.28
2019-05-26T09:21:51.135Z,21.28
2019-05-26T09:22:51.135Z,21.25
2019-05-26T09:23:51.105Z,21.04
2019-05-26T09:24:51.312Z,21.11
2019-05-26T09:25:51.094Z,21.23
2019-05-26T09:26:51.099Z,21.22
2019-05-26T09:27:51.131Z,21.17
2019-05-26T09:28:51.111Z,21.40
2019-05-26T09:29:51.221Z,21.40
2019-05-26T09:30:51.062Z,21.33
2019-05-26T09:31:55.639Z,21.32
2019-05-26T09:32:54.633Z,21.26
2019-05-26T09:33:51.157Z,21.48
2019-05-26T09:34:51.024Z,21.60
2019-05-26T09:35:51.004Z,21.38
2019-05-26T09:36:51.639Z,21.28
2019-05-26T09:37:51.000Z,21.23
2019-05-26T09:38:52.593Z,21.32
2019-05-26T09:39:52.620Z,21.23
2019-05-26T09:40:51.973Z,21.14
2019-05-26T09:41:51.449Z,21.15
2019-05-26T09:42:56.577Z,21.13
2019-05-26T09:43:50.916Z,21.10
2019-05-26T09:44:50.912Z,21.11
2019-05-26T09:45:50.941Z,21.28
2019-05-26T09:46:50.910Z,21.47
2019-05-26T09:47:51.563Z,21.54
2019-05-26T09:48:50.880Z,21.72
2019-05-26T09:49:50.975Z,21.85
2019-05-26T09:50:50.986Z,21.88
2019-05-26T09:51:51.593Z,21.69
2019-05-26T09:52:51.772Z,21.88
2019-05-26T09:54:01.371Z,21.69
2019-05-26T09:54:51.989Z,21.62
2019-05-26T09:55:51.579Z,21.38
2019-05-26T09:56:50.769Z,21.32
2019-05-26T09:57:51.607Z,21.48
2019-05-26T09:58:50.782Z,21.48
2019-05-26T09:59:50.924Z,21.47
2019-05-26T10:00:51.493Z,21.45
2019-05-26T10:01:50.908Z,21.47
2019-05-26T10:02:50.776Z,21.45
2019-05-26T10:04:23.078Z,21.60
2019-05-26T10:04:52.545Z,21.58
2019-05-26T10:05:52.571Z,21.44
2019-05-26T10:06:50.689Z,21.47
2019-05-26T10:07:50.927Z,21.37
2019-05-26T10:08:50.718Z,21.54
2019-05-26T10:09:50.793Z,21.62
2019-05-26T10:10:50.696Z,21.74
2019-05-26T10:11:51.619Z,21.75
2019-05-26T10:12:50.979Z,21.89
2019-05-26T10:14:07.998Z,21.88
2019-05-26T10:14:53.864Z,21.83
2019-05-26T10:15:50.639Z,21.84
2019-05-26T10:16:52.594Z,21.72
2019-05-26T10:17:52.238Z,21.56
2019-05-26T10:18:53.448Z,21.43
2019-05-26T10:19:50.553Z,21.40
2019-05-26T10:20:51.075Z,21.50
2019-05-26T10:21:50.555Z,21.40
2019-05-26T10:22:51.649Z,21.17
2019-05-26T10:23:53.002Z,21.13
2019-05-26T10:24:51.085Z,20.92
2019-05-26T10:25:52.488Z,20.96
2019-05-26T10:26:50.699Z,20.95
2019-05-26T10:27:51.002Z,21.00
2019-05-26T10:28:50.611Z,21.14
2019-05-26T10:29:51.123Z,21.28
2019-05-26T10:30:50.586Z,21.45
2019-05-26T10:31:55.388Z,21.37
2019-05-26T10:32:50.465Z,21.51
2019-05-26T10:33:50.403Z,21.74
2019-05-26T10:34:51.122Z,21.69
2019-05-26T10:35:58.451Z,21.74
2019-05-26T10:36:50.497Z,21.45
2019-05-26T10:37:51.244Z,21.47
2019-05-26T10:38:50.368Z,21.58
2019-05-26T10:39:51.400Z,21.74
2019-05-26T10:40:51.493Z,21.59
2019-05-26T10:41:51.658Z,21.66
2019-05-26T10:42:51.541Z,21.77
2019-05-26T10:43:50.283Z,21.66
2019-05-26T10:44:53.534Z,21.69
2019-05-26T10:45:50.335Z,21.80
2019-05-26T10:46:50.408Z,21.75
2019-05-26T10:47:50.659Z,21.89
2019-05-26T10:48:52.901Z,21.99
2019-05-26T10:49:50.231Z,21.92
2019-05-26T10:50:50.213Z,22.03
2019-05-26T10:51:51.105Z,22.01
2019-05-26T10:52:50.162Z,22.00
2019-05-26T10:53:50.165Z,22.01
2019-05-26T10:54:57.111Z,22.19
2019-05-26T10:55:50.236Z,22.25
2019-05-26T10:56:50.217Z,22.21
2019-05-26T10:57:51.135Z,22.19
2019-05-26T10:58:50.136Z,22.14
2019-05-26T10:59:50.173Z,22.31
2019-05-26T11:00:50.097Z,22.19
2019-05-26T11:01:51.000Z,22.16
2019-05-26T11:02:50.076Z,22.01
2019-05-26T11:03:50.096Z,21.88
2019-05-26T11:04:50.101Z,21.75
2019-05-26T11:05:50.124Z,21.80
2019-05-26T11:06:50.026Z,21.66
2019-05-26T11:07:50.021Z,21.88
2019-05-26T11:08:50.078Z,21.96
2019-05-26T11:09:50.150Z,22.14
2019-05-26T11:10:50.077Z,22.31
2019-05-26T11:11:50.745Z,22.44
2019-05-26T11:12:50.072Z,22.25
2019-05-26T11:14:02.313Z,22.36
2019-05-26T11:14:50.946Z,22.31
2019-05-26T11:15:50.622Z,22.41
2019-05-26T11:16:49.963Z,22.38
2019-05-26T11:17:50.505Z,22.47
2019-05-26T11:18:57.506Z,22.51
2019-05-26T11:19:49.920Z,22.51
2019-05-26T11:20:49.938Z,22.70
2019-05-26T11:21:49.899Z,22.62
2019-05-26T11:22:49.917Z,22.61
2019-05-26T11:23:49.837Z,22.86
2019-05-26T11:24:49.956Z,22.99
2019-05-26T11:25:50.541Z,23.23
2019-05-26T11:26:49.814Z,23.08
2019-05-26T11:27:51.318Z,23.26
2019-05-26T11:28:49.783Z,23.42
2019-05-26T11:29:49.773Z,23.47
2019-05-26T11:30:49.770Z,23.69
2019-05-26T11:31:50.561Z,23.79
2019-05-26T11:34:18.491Z,24.10
2019-05-26T11:35:20.125Z,24.34
2019-05-26T11:36:19.120Z,24.36
2019-05-26T11:37:18.497Z,24.34
2019-05-26T11:38:18.610Z,24.26
2019-05-26T11:39:18.437Z,24.29
2019-05-26T11:40:19.130Z,24.47
2019-05-26T11:41:18.410Z,24.37
2019-05-26T11:42:27.254Z,24.56
2019-05-26T11:43:18.488Z,24.53
2019-05-26T11:44:18.731Z,24.28
2019-05-26T11:45:18.363Z,24.24
2019-05-26T11:46:18.416Z,24.22
2019-05-26T11:47:18.339Z,24.06
2019-05-26T11:48:18.349Z,23.84
2019-05-26T11:49:18.326Z,23.73
2019-05-26T11:50:18.311Z,23.66
2019-05-26T11:51:18.324Z,23.29
2019-05-26T11:52:20.386Z,23.18
2019-05-26T11:53:18.362Z,23.32
2019-05-26T11:54:18.293Z,23.37
2019-05-26T11:55:18.313Z,23.52
2019-05-26T11:56:18.630Z,23.91
2019-05-26T11:57:18.268Z,24.10
2019-05-26T11:58:18.252Z,24.09
2019-05-26T11:59:18.227Z,24.38
2019-05-26T12:00:18.226Z,24.58
2019-05-26T12:01:18.233Z,24.34
2019-05-26T12:02:18.756Z,23.92
2019-05-26T12:03:19.263Z,23.86
2019-05-26T12:04:18.220Z,23.91
2019-05-26T12:05:18.685Z,23.79
2019-05-26T12:06:18.156Z,23.91
2019-05-26T12:07:20.749Z,24.03
2019-05-26T12:08:18.129Z,24.06
2019-05-26T12:09:18.169Z,24.14
2019-05-26T12:10:18.115Z,24.22
2019-05-26T12:11:18.135Z,24.25
2019-05-26T12:12:18.113Z,24.25
2019-05-26T12:13:18.134Z,24.44
2019-05-26T12:14:33.046Z,24.46
2019-05-26T12:15:19.095Z,24.51
2019-05-26T12:16:18.040Z,24.58
2019-05-26T12:17:18.187Z,24.59
2019-05-26T12:18:18.664Z,24.75
2019-05-26T12:19:18.004Z,24.58
2019-05-26T12:20:18.024Z,24.13
2019-05-26T12:21:18.027Z,24.01
2019-05-26T12:22:18.003Z,24.09
2019-05-26T12:23:18.111Z,24.10
2019-05-26T12:24:17.968Z,24.10
2019-05-26T12:25:18.014Z,23.82
2019-05-26T12:26:17.936Z,23.89
2019-05-26T12:27:17.985Z,23.84
2019-05-26T12:28:17.957Z,23.85
2019-05-26T12:29:18.788Z,23.79
2019-05-26T12:30:19.509Z,23.94
2019-05-26T12:31:17.919Z,24.06
2019-05-26T12:32:17.876Z,24.10
2019-05-26T12:33:18.673Z,24.36
2019-05-26T12:34:17.850Z,24.63
2019-05-26T12:35:17.898Z,25.00
2019-05-26T12:36:17.869Z,25.48
2019-05-26T12:37:17.854Z,25.54
2019-05-26T12:38:18.135Z,25.40
2019-05-26T12:39:18.744Z,25.44
2019-05-26T12:40:17.828Z,25.49
2019-05-26T12:41:18.298Z,25.22
2019-05-26T12:42:18.917Z,24.89
2019-05-26T12:43:17.764Z,24.62
2019-05-26T12:44:17.743Z,24.68
2019-05-26T12:45:17.963Z,24.47
2019-05-26T12:46:17.743Z,24.31
2019-05-26T12:47:23.904Z,24.37
2019-05-26T12:48:19.022Z,24.29
2019-05-26T12:49:20.335Z,24.31
2019-05-26T12:50:21.227Z,24.34
2019-05-26T12:51:23.716Z,24.40
2019-05-26T12:52:26.775Z,24.36
2019-05-26T12:53:19.954Z,24.47
2019-05-26T12:54:39.579Z,24.48
2019-05-26T12:55:20.279Z,24.44
2019-05-26T12:56:20.175Z,24.50
2019-05-26T12:57:19.272Z,24.40
2019-05-26T12:58:34.287Z,24.50
2019-05-26T12:59:38.812Z,24.68